createdAt,value
2022-10-19T00:01:57.915Z,102379.31
2022-10-19T00:04:24.372Z,102377.66
2022-10-19T00:06:50.753Z,102372.44
2022-10-19T00:09:18.211Z,102378.56
2022-10-19T00:11:46.432Z,102374.94
2022-10-19T00:14:14.355Z,102362.56
2022-10-19T00:16:40.881Z,102364.53
2022-10-19T00:19:09.104Z,102365.34
2022-10-19T00:21:35.968Z,102371.41
2022-10-19T00:24:02.327Z,102368.72
2022-10-19T00:26:28.779Z,102361.91
2022-10-19T00:28:55.846Z,102366.13
2022-10-19T00:31:22.469Z,102357.47
2022-10-19T00:33:48.820Z,102362.91
2022-10-19T00:36:15.146Z,102358.66
2022-10-19T00:38:41.919Z,102364.75
2022-10-19T00:41:08.355Z,102358.75
2022-10-19T00:43:53.820Z,102364.81
2022-10-19T00:46:20.307Z,102366.63
2022-10-19T00:48:46.761Z,102365.00
2022-10-19T00:51:13.754Z,102371.13
2022-10-19T00:53:40.936Z,102361.50
2022-10-19T00:56:09.693Z,102359.81
2022-10-19T00:58:36.064Z,102358.06
2022-10-19T01:01:04.221Z,102361.66
2022-10-19T01:03:30.665Z,102358.53
2022-10-19T01:05:57.062Z,102357.81
2022-10-19T01:08:23.668Z,102355.09
2022-10-19T01:11:02.046Z,102362.00
2022-10-19T01:14:05.042Z,102359.47
2022-10-19T01:16:46.491Z,102349.09
2022-10-19T01:19:15.703Z,102362.66
2022-10-19T01:21:47.981Z,102351.28
2022-10-19T01:24:17.984Z,102356.44
2022-10-19T01:27:10.104Z,102358.06
2022-10-19T01:29:39.174Z,102358.19
2022-10-19T01:32:11.369Z,102354.00
2022-10-19T01:34:49.769Z,102352.34
2022-10-19T01:37:19.586Z,102353.34
2022-10-19T01:39:54.670Z,102347.28
2022-10-19T01:42:40.689Z,102349.84
2022-10-19T01:45:27.366Z,102341.00
2022-10-19T01:48:06.252Z,102339.22
2022-10-19T01:50:47.855Z,102338.28
2022-10-19T01:53:15.731Z,102335.78
2022-10-19T01:55:44.570Z,102332.34
2022-10-19T01:58:13.530Z,102328.13
2022-10-19T02:00:42.270Z,102322.91
2022-10-19T02:03:10.137Z,102310.69
2022-10-19T02:05:38.086Z,102313.41
2022-10-19T02:08:08.253Z,102320.69
2022-10-19T02:10:37.575Z,102336.53
2022-10-19T02:13:04.339Z,102333.13
2022-10-19T02:15:31.792Z,102328.91
2022-10-19T02:17:59.702Z,102325.44
2022-10-19T02:20:27.244Z,102326.19
2022-10-19T02:22:53.667Z,102320.22
2022-10-19T02:25:20.348Z,102322.88
2022-10-19T02:27:46.736Z,102319.41
2022-10-19T02:30:14.461Z,102308.91
2022-10-19T02:32:41.161Z,102315.97
2022-10-19T02:35:07.880Z,102308.16
2022-10-19T02:40:06.103Z,102308.19
2022-10-19T02:42:34.587Z,102305.47
2022-10-19T02:45:19.628Z,102302.88
2022-10-19T02:48:06.227Z,102296.16
2022-10-19T02:50:32.885Z,102292.84
2022-10-19T02:52:59.627Z,102296.56
2022-10-19T02:55:26.139Z,102291.19
2022-10-19T02:57:53.725Z,102292.28
2022-10-19T03:00:20.222Z,102282.66
2022-10-19T03:02:46.675Z,102284.63
2022-10-19T03:05:13.067Z,102280.16
2022-10-19T03:07:39.422Z,102280.28
2022-10-19T03:10:05.964Z,102272.41
2022-10-19T03:12:32.287Z,102277.03
2022-10-19T03:14:58.636Z,102269.22
2022-10-19T03:17:25.012Z,102277.94
2022-10-19T03:19:51.407Z,102282.47
2022-10-19T03:22:17.801Z,102284.38
2022-10-19T03:24:51.623Z,102282.75
2022-10-19T03:27:17.964Z,102279.22
2022-10-19T03:29:44.306Z,102274.00
2022-10-19T03:32:10.716Z,102278.31
2022-10-19T03:34:37.055Z,102285.38
2022-10-19T03:37:03.444Z,102290.69
2022-10-19T03:39:29.859Z,102290.53
2022-10-19T03:41:56.189Z,102287.91
2022-10-19T03:44:22.543Z,102282.91
2022-10-19T03:46:48.887Z,102292.56
2022-10-19T03:49:15.253Z,102296.59
2022-10-19T03:51:41.874Z,102302.78
2022-10-19T03:54:11.431Z,102301.13
2022-10-19T03:56:37.932Z,102300.97
2022-10-19T03:59:05.181Z,102301.94
2022-10-19T04:01:33.389Z,102300.03
2022-10-19T04:04:01.284Z,102299.91
2022-10-19T04:06:29.237Z,102306.81
2022-10-19T04:08:55.728Z,102302.41
2022-10-19T04:11:23.708Z,102295.75
2022-10-19T04:13:53.804Z,102293.47
2022-10-19T04:16:20.927Z,102297.09
2022-10-19T04:18:47.576Z,102297.13
2022-10-19T04:21:20.036Z,102291.84
2022-10-19T04:23:46.460Z,102303.34
2022-10-19T04:26:12.792Z,102301.53
2022-10-19T04:28:39.191Z,102305.91
2022-10-19T04:31:06.529Z,102305.00
2022-10-19T04:33:33.259Z,102300.59
2022-10-19T04:36:00.234Z,102299.84
2022-10-19T04:38:26.800Z,102298.91
2022-10-19T04:40:53.148Z,102297.13
2022-10-19T04:43:19.491Z,102294.53
2022-10-19T04:45:45.844Z,102295.41
2022-10-19T04:48:15.006Z,102293.63
2022-10-19T04:50:42.566Z,102293.53
2022-10-19T04:53:19.527Z,102290.09
2022-10-19T04:55:45.977Z,102285.75
2022-10-19T04:58:12.395Z,102283.03
2022-10-19T05:00:39.150Z,102281.34
2022-10-19T05:03:05.591Z,102273.44
2022-10-19T05:05:32.518Z,102273.47
2022-10-19T05:07:58.931Z,102280.69
2022-10-19T05:10:25.377Z,102277.28
2022-10-19T05:12:51.723Z,102284.19
2022-10-19T05:15:18.052Z,102281.06
2022-10-19T05:17:44.421Z,102269.84
2022-10-19T05:20:13.792Z,102276.00
2022-10-19T05:22:40.239Z,102272.56
2022-10-19T05:25:07.372Z,102272.78
2022-10-19T05:27:34.157Z,102270.75
2022-10-19T05:30:00.676Z,102269.50
2022-10-19T05:32:27.834Z,102268.94
2022-10-19T05:34:54.182Z,102271.72
2022-10-19T05:37:21.568Z,102263.88
2022-10-19T05:39:47.994Z,102261.31
2022-10-19T05:42:14.352Z,102266.59
2022-10-19T05:44:40.816Z,102264.22
2022-10-19T05:47:07.378Z,102264.47
2022-10-19T05:49:33.740Z,102260.19
2022-10-19T05:52:00.133Z,102262.63
2022-10-19T05:54:28.445Z,102266.16
2022-10-19T05:56:55.303Z,102256.66
2022-10-19T05:59:21.848Z,102265.50
2022-10-19T06:01:48.510Z,102255.94
2022-10-19T06:06:42.614Z,102257.47
2022-10-19T06:09:09.849Z,102252.19
2022-10-19T06:11:39.031Z,102250.44
2022-10-19T06:14:07.216Z,102248.81
2022-10-19T06:16:33.682Z,102258.41
2022-10-19T06:19:00.554Z,102253.31
2022-10-19T06:21:28.187Z,102255.88
2022-10-19T06:23:59.343Z,102255.94
2022-10-19T06:26:26.290Z,102261.03
2022-10-19T06:28:54.802Z,102271.53
2022-10-19T06:31:21.400Z,102270.41
2022-10-19T06:33:49.441Z,102281.59
2022-10-19T06:36:17.931Z,102282.31
2022-10-19T06:38:44.551Z,102278.41
2022-10-19T06:41:11.615Z,102273.81
2022-10-19T06:43:38.181Z,102268.25
2022-10-19T06:46:05.895Z,102268.84
2022-10-19T06:48:32.369Z,102276.53
2022-10-19T06:50:59.584Z,102268.81
2022-10-19T06:53:27.055Z,102269.63
2022-10-19T06:55:53.409Z,102265.03
2022-10-19T06:58:19.859Z,102266.66
2022-10-19T07:00:46.361Z,102253.25
2022-10-19T07:03:12.850Z,102262.78
2022-10-19T07:05:39.273Z,102264.47
2022-10-19T07:08:05.775Z,102261.03
2022-10-19T07:10:32.165Z,102260.75
2022-10-19T07:12:58.608Z,102259.56
2022-10-19T07:15:25.200Z,102263.66
2022-10-19T07:17:52.580Z,102272.16
2022-10-19T07:20:18.958Z,102273.53
2022-10-19T07:22:45.402Z,102282.22
2022-10-19T07:25:11.925Z,102286.16
2022-10-19T07:27:40.278Z,102279.00
2022-10-19T07:30:07.325Z,102286.41
2022-10-19T07:32:33.701Z,102287.41
2022-10-19T07:35:00.138Z,102290.94
2022-10-19T07:37:26.562Z,102297.13
2022-10-19T07:39:52.915Z,102298.81
2022-10-19T07:42:19.386Z,102294.19
2022-10-19T07:44:45.781Z,102287.91
2022-10-19T07:47:12.207Z,102280.75
2022-10-19T07:49:38.718Z,102278.41
2022-10-19T07:52:05.416Z,102284.44
2022-10-19T07:54:32.003Z,102283.47
2022-10-19T07:56:58.515Z,102283.19
2022-10-19T07:59:25.000Z,102284.19
2022-10-19T08:01:52.912Z,102292.09
2022-10-19T08:07:05.707Z,102292.56
2022-10-19T08:12:18.652Z,102275.28
2022-10-19T08:14:45.055Z,102274.47
2022-10-19T08:17:11.957Z,102268.28
2022-10-19T08:19:43.074Z,102269.88
2022-10-19T08:22:10.155Z,102269.59
2022-10-19T08:24:36.545Z,102260.03
2022-10-19T08:27:02.971Z,102261.69
2022-10-19T08:29:31.507Z,102268.16
2022-10-19T08:31:58.943Z,102270.44
2022-10-19T08:34:25.434Z,102268.72
2022-10-19T08:36:51.783Z,102269.00
2022-10-19T08:39:18.224Z,102265.47
2022-10-19T08:42:05.160Z,102254.56
2022-10-19T08:44:34.398Z,102255.78
2022-10-19T08:47:23.236Z,102261.94
2022-10-19T08:49:50.113Z,102249.31
2022-10-19T08:52:19.216Z,102233.78
2022-10-19T08:55:06.068Z,102239.56
2022-10-19T08:57:33.327Z,102242.66
2022-10-19T09:00:06.180Z,102243.69
2022-10-19T09:02:33.078Z,102232.63
2022-10-19T09:05:03.314Z,102224.72
2022-10-19T09:07:33.039Z,102222.63
2022-10-19T09:10:01.230Z,102224.09
2022-10-19T09:12:53.857Z,102214.41
2022-10-19T09:15:26.338Z,102206.25
2022-10-19T09:17:52.762Z,102205.69
2022-10-19T09:20:24.619Z,102214.41
2022-10-19T09:22:56.180Z,102206.22
2022-10-19T09:25:23.259Z,102210.41
2022-10-19T09:30:30.421Z,102203.44
2022-10-19T09:33:00.854Z,102202.53
2022-10-19T09:35:27.558Z,102202.59
2022-10-19T09:37:54.647Z,102205.06
2022-10-19T09:40:23.268Z,102196.28
2022-10-19T09:42:57.270Z,102202.84
2022-10-19T09:45:26.649Z,102198.56
2022-10-19T09:47:53.168Z,102201.81
2022-10-19T09:50:26.467Z,102197.50
2022-10-19T09:52:55.229Z,102197.25
2022-10-19T09:55:37.786Z,102194.72
2022-10-19T09:58:13.630Z,102191.81
2022-10-19T10:00:50.668Z,102190.53
2022-10-19T10:03:22.936Z,102193.19
2022-10-19T10:05:49.604Z,102186.75
2022-10-19T10:08:18.048Z,102185.94
2022-10-19T10:10:53.135Z,102183.22
2022-10-19T10:13:21.108Z,102181.69
2022-10-19T10:15:48.967Z,102182.38
2022-10-19T10:18:16.396Z,102181.47
2022-10-19T10:21:01.641Z,102178.84
2022-10-19T10:23:31.096Z,102177.47
2022-10-19T10:25:58.894Z,102179.31
2022-10-19T10:28:26.495Z,102179.44
2022-10-19T10:30:54.794Z,102172.53
2022-10-19T10:33:43.860Z,102177.44
2022-10-19T10:36:12.212Z,102169.69
2022-10-19T10:38:45.001Z,102161.13
2022-10-19T10:41:14.299Z,102164.22
2022-10-19T10:46:21.139Z,102153.66
2022-10-19T10:48:56.474Z,102152.72
2022-10-19T10:51:39.373Z,102148.31
2022-10-19T10:54:26.082Z,102153.47
2022-10-19T10:57:09.304Z,102149.28
2022-10-19T10:59:44.759Z,102147.78
2022-10-19T11:05:19.316Z,102131.13
2022-10-19T11:07:47.406Z,102133.13
2022-10-19T11:10:20.136Z,102124.34
2022-10-19T11:12:49.316Z,102124.22
2022-10-19T11:15:27.707Z,102116.28
2022-10-19T11:17:57.566Z,102111.72
2022-10-19T11:20:27.436Z,102103.28
2022-10-19T11:23:12.531Z,102094.44
2022-10-19T11:26:17.365Z,102097.47
2022-10-19T11:29:13.116Z,102095.19
2022-10-19T11:31:45.764Z,102094.47
2022-10-19T11:34:12.114Z,102087.88
2022-10-19T11:36:46.322Z,102090.59
2022-10-19T11:39:38.754Z,102086.31
2022-10-19T11:42:34.558Z,102078.38
2022-10-19T11:45:09.900Z,102076.50
2022-10-19T11:47:51.982Z,102079.44
2022-10-19T11:50:27.115Z,102077.59
2022-10-19T11:52:59.077Z,102069.09
2022-10-19T11:55:36.010Z,102069.00
2022-10-19T11:58:24.144Z,102064.47
2022-10-19T12:00:56.951Z,102052.63
2022-10-19T12:03:36.518Z,102049.22
2022-10-19T12:06:08.061Z,102043.91
2022-10-19T12:08:37.491Z,102036.63
2022-10-19T12:11:03.917Z,102040.00
2022-10-19T12:13:37.306Z,102025.47
2022-10-19T12:16:04.151Z,102028.81
2022-10-19T12:18:36.413Z,102029.13
2022-10-19T12:21:04.542Z,102024.59
2022-10-19T12:23:41.508Z,102022.41
2022-10-19T12:26:09.934Z,102010.84
2022-10-19T12:28:38.065Z,102002.53
2022-10-19T12:31:05.369Z,102008.25
2022-10-19T12:33:42.386Z,101998.59
2022-10-19T12:36:27.160Z,101994.16
2022-10-19T12:39:00.860Z,101986.47
2022-10-19T12:41:44.838Z,101981.16
2022-10-19T12:44:29.582Z,101975.44
2022-10-19T12:47:00.854Z,101972.88
2022-10-19T12:49:30.479Z,101968.31
2022-10-19T12:51:57.592Z,101960.25
2022-10-19T12:54:28.157Z,101960.25
2022-10-19T12:56:55.669Z,101958.00
2022-10-19T12:59:25.134Z,101951.91
2022-10-19T13:01:52.343Z,101953.69
2022-10-19T13:04:24.045Z,101944.19
2022-10-19T13:07:10.838Z,101945.16
2022-10-19T13:09:39.310Z,101936.25
2022-10-19T13:12:11.696Z,101932.59
2022-10-19T13:14:50.274Z,101931.56
2022-10-19T13:17:38.051Z,101934.28
2022-10-19T13:20:13.827Z,101915.66
2022-10-19T13:22:48.850Z,101917.59
2022-10-19T13:25:27.820Z,101909.25
2022-10-19T13:28:01.144Z,101901.97
2022-10-19T13:30:41.689Z,101900.94
2022-10-19T13:33:29.572Z,101900.75
2022-10-19T13:35:58.852Z,101902.94
2022-10-19T13:38:29.366Z,101898.78
2022-10-19T13:40:55.765Z,101900.22
2022-10-19T13:43:26.882Z,101905.69
2022-10-19T13:46:00.946Z,101895.81
2022-10-19T13:48:36.056Z,101898.94
2022-10-19T13:51:08.584Z,101894.41
2022-10-19T13:53:34.911Z,101897.44
2022-10-19T13:56:19.957Z,101893.19
2022-10-19T13:58:46.315Z,101888.72
2022-10-19T14:01:31.727Z,101888.63
2022-10-19T14:04:16.734Z,101891.59
2022-10-19T14:06:55.891Z,101887.41
2022-10-19T14:09:29.875Z,101879.91
2022-10-19T14:12:06.367Z,101885.84
2022-10-19T14:14:38.869Z,101882.34
2022-10-19T14:17:13.778Z,101874.72
2022-10-19T14:19:48.026Z,101871.41
2022-10-19T14:22:20.576Z,101869.09
2022-10-19T14:24:47.137Z,101870.91
2022-10-19T14:27:17.614Z,101865.69
2022-10-19T14:29:49.281Z,101862.22
2022-10-19T14:32:17.202Z,101859.66
2022-10-19T14:34:44.912Z,101866.69
2022-10-19T14:37:16.485Z,101865.25
2022-10-19T14:39:42.926Z,101853.44
2022-10-19T14:42:10.232Z,101849.34
2022-10-19T14:44:43.681Z,101857.88
2022-10-19T14:47:30.499Z,101851.06
2022-10-19T14:49:56.930Z,101847.63
2022-10-19T14:55:01.998Z,101846.31
2022-10-19T14:57:32.440Z,101847.06
2022-10-19T15:00:01.162Z,101837.22
2022-10-19T15:02:27.512Z,101831.38
2022-10-19T15:04:55.135Z,101826.84
2022-10-19T15:07:26.681Z,101825.59
2022-10-19T15:09:57.813Z,101830.16
2022-10-19T15:12:29.532Z,101817.84
2022-10-19T15:14:57.112Z,101821.94
2022-10-19T15:17:30.782Z,101812.63
2022-10-19T15:20:00.803Z,101810.25
2022-10-19T15:22:30.552Z,101806.84
2022-10-19T15:24:56.898Z,101799.66
2022-10-19T15:27:29.849Z,101796.53
2022-10-19T15:30:22.392Z,101806.56
2022-10-19T15:32:57.718Z,101802.41
2022-10-19T15:35:29.520Z,101798.41
2022-10-19T15:38:00.204Z,101793.13
2022-10-19T15:40:32.408Z,101787.44
2022-10-19T15:42:58.900Z,101786.00
2022-10-19T15:45:35.325Z,101790.56
2022-10-19T15:48:10.631Z,101784.66
2022-10-19T15:50:43.856Z,101786.28
2022-10-19T15:53:10.447Z,101774.03
2022-10-19T15:55:36.840Z,101774.69
2022-10-19T15:58:03.199Z,101781.63
2022-10-19T16:00:30.014Z,101770.53
2022-10-19T16:02:56.401Z,101761.91
2022-10-19T16:05:22.904Z,101763.97
2022-10-19T16:07:49.428Z,101763.34
2022-10-19T16:10:23.478Z,101766.94
2022-10-19T16:12:50.200Z,101763.81
2022-10-19T16:15:22.090Z,101759.81
2022-10-19T16:17:59.003Z,101755.09
2022-10-19T16:20:26.789Z,101750.72
2022-10-19T16:22:53.554Z,101751.09
2022-10-19T16:25:20.064Z,101748.88
2022-10-19T16:27:46.520Z,101744.03
2022-10-19T16:30:13.061Z,101738.19
2022-10-19T16:35:12.137Z,101736.06
2022-10-19T16:37:38.527Z,101733.84
2022-10-19T16:40:05.217Z,101733.28
2022-10-19T16:42:31.909Z,101730.28
2022-10-19T16:44:58.522Z,101727.13
2022-10-19T16:47:24.893Z,101730.81
2022-10-19T16:50:01.120Z,101732.09
2022-10-19T16:52:28.129Z,101741.56
2022-10-19T16:54:54.614Z,101730.97
2022-10-19T16:57:21.009Z,101733.47
2022-10-19T16:59:49.534Z,101728.53
2022-10-19T17:02:16.041Z,101723.81
2022-10-19T17:04:42.484Z,101721.72
2022-10-19T17:07:08.983Z,101722.47
2022-10-19T17:09:43.337Z,101731.88
2022-10-19T17:12:10.406Z,101728.00
2022-10-19T17:14:38.522Z,101727.47
2022-10-19T17:17:04.920Z,101724.38
2022-10-19T17:19:31.597Z,101722.16
2022-10-19T17:21:59.031Z,101720.66
2022-10-19T17:24:25.406Z,101722.78
2022-10-19T17:26:52.154Z,101722.34
2022-10-19T17:29:19.155Z,101718.41
2022-10-19T17:31:45.791Z,101717.38
2022-10-19T17:34:12.220Z,101706.81
2022-10-19T17:39:08.846Z,101701.75
2022-10-19T17:41:35.791Z,101703.00
2022-10-19T17:44:03.478Z,101699.59
2022-10-19T17:46:31.082Z,101702.38
2022-10-19T17:48:58.008Z,101708.44
2022-10-19T17:51:29.159Z,101707.66
2022-10-19T17:53:56.589Z,101713.91
2022-10-19T17:56:23.324Z,101709.53
2022-10-19T17:58:49.854Z,101701.78
2022-10-19T18:01:17.495Z,101708.06
2022-10-19T18:03:43.984Z,101714.53
2022-10-19T18:06:18.294Z,101717.31
2022-10-19T18:08:45.762Z,101723.38
2022-10-19T18:11:14.436Z,101716.41
2022-10-19T18:13:41.222Z,101715.63
2022-10-19T18:16:12.368Z,101718.34
2022-10-19T18:18:39.654Z,101716.69
2022-10-19T18:21:07.122Z,101718.88
2022-10-19T18:23:33.878Z,101715.63
2022-10-19T18:26:00.963Z,101719.13
2022-10-19T18:28:27.313Z,101703.97
2022-10-19T18:30:53.675Z,101701.16
2022-10-19T18:33:20.104Z,101707.84
2022-10-19T18:35:46.510Z,101712.28
2022-10-19T18:38:12.866Z,101714.16
2022-10-19T18:40:39.226Z,101715.44
2022-10-19T18:43:05.790Z,101717.00
2022-10-19T18:45:32.745Z,101709.97
2022-10-19T18:47:59.149Z,101698.69
2022-10-19T18:50:25.542Z,101702.09
2022-10-19T18:52:52.026Z,101700.41
2022-10-19T18:55:18.477Z,101701.56
2022-10-19T18:57:44.914Z,101691.97
2022-10-19T19:00:11.673Z,101688.50
2022-10-19T19:02:46.562Z,101687.97
2022-10-19T19:05:13.492Z,101685.47
2022-10-19T19:07:39.836Z,101681.91
2022-10-19T19:10:06.500Z,101680.88
2022-10-19T19:12:33.320Z,101668.72
2022-10-19T19:14:59.987Z,101657.50
2022-10-19T19:17:26.336Z,101658.84
2022-10-19T19:19:52.799Z,101652.84
2022-10-19T19:22:19.272Z,101662.66
2022-10-19T19:24:45.690Z,101667.22
2022-10-19T19:27:12.126Z,101658.41
2022-10-19T19:29:38.570Z,101655.91
2022-10-19T19:32:05.319Z,101646.44
2022-10-19T19:34:31.736Z,101645.09
2022-10-19T19:36:58.116Z,101644.16
2022-10-19T19:39:24.468Z,101646.13
2022-10-19T19:41:51.036Z,101646.00
2022-10-19T19:44:17.778Z,101652.31
2022-10-19T19:46:44.237Z,101663.63
2022-10-19T19:49:11.019Z,101655.34
2022-10-19T19:51:37.506Z,101652.56
2022-10-19T19:54:04.337Z,101637.75
2022-10-19T19:56:31.269Z,101632.94
2022-10-19T19:58:58.671Z,101622.44
2022-10-19T20:01:25.408Z,101623.91
2022-10-19T20:03:51.970Z,101622.56
2022-10-19T20:06:22.079Z,101615.44
2022-10-19T20:08:51.771Z,101623.34
2022-10-19T20:11:18.255Z,101618.28
2022-10-19T20:13:45.579Z,101617.00
2022-10-19T20:16:16.503Z,101620.13
2022-10-19T20:18:47.414Z,101607.13
2022-10-19T20:21:14.313Z,101607.19
2022-10-19T20:23:40.742Z,101610.72
2022-10-19T20:26:13.720Z,101619.88
2022-10-19T20:28:40.083Z,101608.25
2022-10-19T20:31:07.523Z,101606.19
2022-10-19T20:33:34.894Z,101609.19
2022-10-19T20:36:06.374Z,101601.91
2022-10-19T20:38:37.003Z,101600.56
2022-10-19T20:41:06.960Z,101593.66
2022-10-19T20:43:35.186Z,101586.38
2022-10-19T20:46:07.685Z,101580.69
2022-10-19T20:48:34.087Z,101584.09
2022-10-19T20:51:10.831Z,101568.81
2022-10-19T20:53:37.378Z,101571.03
2022-10-19T20:56:08.248Z,101581.69
2022-10-19T20:58:35.242Z,101577.72
2022-10-19T21:01:05.680Z,101579.00
2022-10-19T21:03:32.043Z,101573.22
2022-10-19T21:06:01.242Z,101569.16
2022-10-19T21:08:27.712Z,101570.72
2022-10-19T21:10:54.141Z,101563.63
2022-10-19T21:13:20.546Z,101564.81
2022-10-19T21:15:46.918Z,101557.63
2022-10-19T21:18:13.309Z,101557.28
2022-10-19T21:20:39.715Z,101550.59
2022-10-19T21:23:06.090Z,101549.00
2022-10-19T21:25:32.487Z,101549.00
2022-10-19T21:27:58.896Z,101538.34
2022-10-19T21:30:25.754Z,101542.84
2022-10-19T21:32:52.126Z,101546.84
2022-10-19T21:35:18.506Z,101541.34
2022-10-19T21:37:44.954Z,101542.53
2022-10-19T21:40:11.316Z,101542.84
2022-10-19T21:42:37.712Z,101542.91
2022-10-19T21:45:25.616Z,101537.56
2022-10-19T21:47:50.689Z,101539.19
2022-10-19T21:50:17.439Z,101535.53
2022-10-19T21:52:43.859Z,101529.31
2022-10-19T21:55:10.232Z,101531.66
2022-10-19T21:57:36.905Z,101528.66
2022-10-19T22:00:04.523Z,101527.88
2022-10-19T22:02:39.313Z,101529.81
2022-10-19T22:05:05.853Z,101529.66
2022-10-19T22:08:01.132Z,101532.22
2022-10-19T22:18:13.625Z,101504.63
2022-10-19T22:20:40.265Z,101505.41
2022-10-19T22:23:07.369Z,101505.25
2022-10-19T22:25:34.636Z,101510.66
2022-10-19T22:28:01.302Z,101498.28
2022-10-19T22:30:27.805Z,101486.91
2022-10-19T22:32:54.257Z,101484.81
2022-10-19T22:35:20.637Z,101473.53
2022-10-19T22:37:47.105Z,101475.66
2022-10-19T22:40:13.735Z,101465.34
2022-10-19T22:42:40.115Z,101464.94
2022-10-19T22:45:06.819Z,101463.34
2022-10-19T22:47:33.302Z,101459.31
2022-10-19T22:49:59.713Z,101450.47
2022-10-19T22:52:26.105Z,101446.34
2022-10-19T22:54:52.630Z,101448.09
2022-10-19T22:57:19.018Z,101432.41
2022-10-19T22:59:45.453Z,101428.50
2022-10-19T23:02:11.907Z,101423.97
2022-10-19T23:04:38.296Z,101412.97
2022-10-19T23:07:04.683Z,101413.97
2022-10-19T23:09:31.114Z,101409.50
2022-10-19T23:11:57.503Z,101413.44
2022-10-19T23:14:23.877Z,101401.25
2022-10-19T23:20:18.567Z,101399.69
2022-10-19T23:22:44.907Z,101394.41
2022-10-19T23:25:11.268Z,101387.84
2022-10-19T23:27:37.851Z,101382.59
2022-10-19T23:30:04.955Z,101373.50
2022-10-19T23:32:31.368Z,101374.56
2022-10-19T23:34:57.828Z,101374.78
2022-10-19T23:37:24.229Z,101367.13
2022-10-19T23:39:50.621Z,101369.81
2022-10-19T23:42:17.027Z,101373.31
2022-10-19T23:44:43.437Z,101365.41
2022-10-19T23:47:09.775Z,101380.31
2022-10-19T23:49:36.135Z,101377.41
2022-10-19T23:52:02.754Z,101367.75
2022-10-19T23:54:29.180Z,101372.00
2022-10-19T23:56:55.529Z,101372.38
2022-10-19T23:59:21.868Z,101364.03
